Hutchinson, MN (55350)

3:01 AM CST on December 25, 2014 (GMT -0600)
Hutchinson High School | Change Station
CLOSE
Current Station
Personal Weather Station
Location: Hutchinson, MN
Elevation: 1060 ft
Nearby Weather Stations

Elev 1060 ft 44.88 °N, 94.39 °W | Updated 1 minute ago

Mostly Cloudy
Mostly Cloudy
29.1 °F
Feels Like 23 °F
N
6.0
Wind Variable Wind from South
Gusts 7.0 mph

Today
High -- | Low -- °F
--% Chance of Precip.
Yesterday
High -- | Low -- °F
Precip. -- in
7:53 AM 4:41 PM
Waxing Crescent, 14% visible
Pressure 29.60 in
Visibility 10.0 miles
Clouds Scattered Clouds 700 ft
Scattered Clouds 6500 ft
Mostly Cloudy 10000 ft
Windchill 23 °F
Dew Point 27 °F
Humidity 93%
Rainfall 0.00 in
Snow Depth Not available.
UV 0 out of 12
Pollen .10 out of 12
Air Quality Not available.
Flu Activity Not available.
METAR KHCD 250853Z AUTO 18006KT 10SM SCT007 SCT065 BKN100 M01/M02 A2960 RMK AO2 60001 T10101020

More Conditions Fewer Conditions

Pressure 29.60 in
Visibility 10.0 miles
Clouds Scattered Clouds 700 ft
Scattered Clouds 6500 ft
Mostly Cloudy 10000 ft
Windchill 23 °F
Dew Point 27 °F
Humidity 93%
Rainfall 0.00 in
Snow Depth Not available.
UV 0 out of 12
Pollen .10 out of 12
Air Quality Not available.
Flu Activity Not available.
METAR KHCD 250853Z AUTO 18006KT 10SM SCT007 SCT065 BKN100 M01/M02 A2960 RMK AO2 60001 T10101020

More Conditions Fewer Conditions

10-Day Weather Forecast

Almanac

Astronomy

Dec. 25, 2014 Rise Set
Actual Time
Civil Twilight
Nautical Twilight
Astronomical Twilight
Moon
Length of Visible Light
Length of Day
Tomorrow will be .
, % of the Moon is Illuminated

Today's Extremes

State Highs State Lows

Community

WunderPhotos

Upload Photos

1,780,250 photos uploaded!

WunderBlogs® & News

Nearby

Air Quality

  Air Quality AQ Index Pollutant
Not available.

Snow Depth

Station Depth Elevation

Earthquake Activity

City Distance Mag. Time & Date
Minimum magnitude displayed is 2.5.

Coastal Water Temperatures

Place Temperature

Nearby Weather Stations